createdAt,value
2019-03-17T00:01:59.255Z,97.66
2019-03-17T00:04:31.760Z,97.69
2019-03-17T00:07:02.744Z,97.80
2019-03-17T00:09:33.314Z,97.85
2019-03-17T00:12:03.917Z,97.68
2019-03-17T00:14:34.606Z,97.77
2019-03-17T00:17:05.219Z,97.74
2019-03-17T00:19:35.813Z,97.91
2019-03-17T00:22:06.389Z,98.01
2019-03-17T00:24:36.965Z,98.25
2019-03-17T00:27:07.536Z,97.92
2019-03-17T00:29:38.186Z,98.08
2019-03-17T00:32:08.755Z,97.91
2019-03-17T00:34:44.296Z,97.59
2019-03-17T00:37:14.926Z,97.14
2019-03-17T00:39:45.658Z,96.99
2019-03-17T00:42:16.242Z,96.87
2019-03-17T00:44:46.842Z,96.97
2019-03-17T00:47:19.470Z,97.12
2019-03-17T00:49:50.029Z,96.80
2019-03-17T00:52:20.598Z,96.71
2019-03-17T00:54:51.194Z,96.65
2019-03-17T00:57:21.773Z,96.45
2019-03-17T00:59:52.401Z,96.31
2019-03-17T01:02:22.999Z,96.56
2019-03-17T01:04:56.510Z,96.44
2019-03-17T01:07:26.588Z,96.56
2019-03-17T01:09:57.147Z,96.40
2019-03-17T01:12:27.723Z,96.48
2019-03-17T01:14:58.300Z,96.47
2019-03-17T01:17:29.554Z,96.25
2019-03-17T01:20:00.128Z,96.30
2019-03-17T01:22:31.990Z,96.44
2019-03-17T01:25:02.543Z,96.44
2019-03-17T01:27:36.323Z,96.67
2019-03-17T01:30:07.624Z,96.46
2019-03-17T01:32:38.185Z,96.44
2019-03-17T01:35:10.004Z,96.38
2019-03-17T01:37:41.074Z,96.47
2019-03-17T01:40:14.007Z,96.53
2019-03-17T01:42:44.527Z,96.75
2019-03-17T01:45:15.177Z,96.69
2019-03-17T01:47:45.702Z,96.51
2019-03-17T01:50:16.310Z,96.43
2019-03-17T01:52:47.600Z,96.25
2019-03-17T01:55:18.195Z,96.46
2019-03-17T01:57:48.732Z,96.40
2019-03-17T02:00:19.367Z,96.43
2019-03-17T02:02:52.105Z,96.46
2019-03-17T02:05:25.325Z,96.36
2019-03-17T02:07:56.081Z,96.48
2019-03-17T02:10:26.702Z,96.80
2019-03-17T02:12:57.273Z,96.79
2019-03-17T02:15:27.863Z,96.93
2019-03-17T02:17:58.433Z,97.04
2019-03-17T02:20:30.308Z,97.00
2019-03-17T02:23:00.932Z,97.13
2019-03-17T02:25:31.655Z,97.12
2019-03-17T02:28:02.790Z,97.10
2019-03-17T02:30:34.007Z,97.27
2019-03-17T02:33:04.656Z,97.29
2019-03-17T02:35:39.594Z,97.29
2019-03-17T02:38:07.555Z,97.32
2019-03-17T02:40:38.146Z,97.38
2019-03-17T02:43:08.712Z,97.08
2019-03-17T02:45:39.302Z,97.08
2019-03-17T02:48:09.845Z,97.04
2019-03-17T02:50:41.059Z,97.04
2019-03-17T02:53:14.494Z,96.86
2019-03-17T02:55:45.118Z,96.83
2019-03-17T02:58:16.970Z,96.66
2019-03-17T03:00:47.722Z,96.57
2019-03-17T03:03:20.639Z,96.63
2019-03-17T03:05:55.415Z,96.59
2019-03-17T03:08:25.266Z,96.77
2019-03-17T03:10:56.167Z,96.52
2019-03-17T03:13:26.796Z,96.35
2019-03-17T03:15:57.407Z,96.16
2019-03-17T03:18:28.160Z,96.26
2019-03-17T03:20:59.020Z,96.02
2019-03-17T03:23:29.576Z,96.10
2019-03-17T03:26:00.179Z,95.90
2019-03-17T03:28:30.806Z,95.70
2019-03-17T03:31:01.549Z,95.36
2019-03-17T03:33:32.138Z,95.36
2019-03-17T03:36:10.599Z,95.17
2019-03-17T03:38:36.019Z,94.94
2019-03-17T03:41:06.814Z,94.99
2019-03-17T03:43:37.392Z,95.01
2019-03-17T03:46:07.962Z,95.05
2019-03-17T03:48:38.539Z,95.05
2019-03-17T03:51:09.118Z,95.10
2019-03-17T03:53:39.687Z,94.75
2019-03-17T03:56:10.275Z,93.91
2019-03-17T03:58:41.548Z,94.07
2019-03-17T04:01:12.149Z,94.29
2019-03-17T04:03:42.939Z,94.35
2019-03-17T04:06:25.676Z,94.29
2019-03-17T04:08:46.453Z,94.37
2019-03-17T04:11:17.032Z,94.58
2019-03-17T04:13:47.623Z,94.78
2019-03-17T04:16:18.232Z,94.71
2019-03-17T04:18:49.555Z,94.24
2019-03-17T04:21:20.154Z,93.86
2019-03-17T04:23:50.692Z,93.75
2019-03-17T04:26:21.336Z,93.69
2019-03-17T04:28:52.898Z,93.23
2019-03-17T04:31:23.641Z,93.09
2019-03-17T04:33:54.135Z,92.63
2019-03-17T04:36:24.710Z,92.50
2019-03-17T04:38:55.275Z,92.42
2019-03-17T04:41:25.847Z,92.22
2019-03-17T04:43:56.436Z,92.30
2019-03-17T04:46:29.741Z,92.25
2019-03-17T04:49:02.424Z,92.53
2019-03-17T04:51:33.019Z,92.65
2019-03-17T04:54:03.557Z,92.50
2019-03-17T04:56:34.152Z,92.61
2019-03-17T04:59:04.747Z,92.94
2019-03-17T05:01:35.348Z,92.80
2019-03-17T05:04:06.003Z,92.55
2019-03-17T05:06:36.619Z,92.57
2019-03-17T05:09:08.940Z,92.47
2019-03-17T05:11:41.009Z,92.12
2019-03-17T05:14:11.560Z,91.98
2019-03-17T05:16:42.160Z,91.18
2019-03-17T05:19:12.727Z,90.97
2019-03-17T05:21:43.361Z,90.65
2019-03-17T05:24:13.908Z,90.39
2019-03-17T05:26:45.535Z,89.99
2019-03-17T05:29:16.059Z,89.17
2019-03-17T05:31:46.688Z,89.11
2019-03-17T05:34:17.157Z,88.74
2019-03-17T05:36:49.932Z,88.42
2019-03-17T05:39:20.473Z,88.61
2019-03-17T05:41:52.053Z,88.31
2019-03-17T05:44:22.601Z,88.10
2019-03-17T05:46:53.210Z,88.21
2019-03-17T05:49:23.749Z,88.54
2019-03-17T05:51:54.325Z,88.85
2019-03-17T05:54:27.188Z,88.85
2019-03-17T05:56:57.812Z,88.75
2019-03-17T05:59:28.401Z,89.33
2019-03-17T06:01:59.057Z,89.53
2019-03-17T06:04:31.916Z,89.74
2019-03-17T06:07:02.552Z,89.85
2019-03-17T06:09:33.117Z,90.01
2019-03-17T06:12:06.620Z,90.19
2019-03-17T06:14:37.247Z,90.27
2019-03-17T06:17:07.884Z,90.29
2019-03-17T06:19:39.167Z,90.55
2019-03-17T06:22:09.770Z,90.56
2019-03-17T06:24:40.300Z,90.59
2019-03-17T06:27:10.944Z,90.84
2019-03-17T06:29:41.467Z,90.81
2019-03-17T06:32:12.063Z,90.93
2019-03-17T06:34:42.603Z,90.83
2019-03-17T06:37:13.209Z,91.44
2019-03-17T06:39:43.792Z,91.21
2019-03-17T06:42:14.971Z,91.21
2019-03-17T06:44:45.534Z,91.40
2019-03-17T06:47:16.126Z,92.15
2019-03-17T06:49:46.645Z,92.11
2019-03-17T06:52:17.883Z,92.25
2019-03-17T06:54:48.477Z,92.19
2019-03-17T06:57:19.073Z,92.22
2019-03-17T06:59:49.808Z,92.28
2019-03-17T07:02:21.374Z,92.57
2019-03-17T07:04:54.106Z,92.32
2019-03-17T07:07:24.326Z,92.19
2019-03-17T07:09:55.133Z,92.88
2019-03-17T07:12:28.178Z,92.83
2019-03-17T07:14:58.827Z,92.67
2019-03-17T07:17:29.439Z,92.51
2019-03-17T07:20:00.968Z,92.65
2019-03-17T07:22:32.529Z,93.43
2019-03-17T07:25:03.058Z,93.14
2019-03-17T07:27:34.379Z,93.40
2019-03-17T07:30:05.450Z,93.85
2019-03-17T07:32:36.029Z,94.49
2019-03-17T07:35:07.294Z,94.10
2019-03-17T07:37:37.920Z,94.32
2019-03-17T07:40:09.888Z,93.90
2019-03-17T07:42:40.461Z,94.15
2019-03-17T07:45:14.285Z,94.43
2019-03-17T07:47:44.867Z,94.46
2019-03-17T07:50:15.449Z,95.02
2019-03-17T07:52:48.407Z,95.21
2019-03-17T07:55:19.054Z,95.34
2019-03-17T07:57:49.709Z,95.99
2019-03-17T08:00:31.290Z,97.05
2019-03-17T08:02:52.511Z,97.08
2019-03-17T08:05:23.075Z,97.51
2019-03-17T08:07:53.642Z,97.78
2019-03-17T08:10:24.224Z,98.40
2019-03-17T08:12:54.756Z,98.99
2019-03-17T08:15:25.434Z,99.45
2019-03-17T08:17:57.874Z,100.00
2019-03-17T08:20:28.368Z,100.00
2019-03-17T08:22:58.985Z,100.00
2019-03-17T08:25:29.513Z,100.00
2019-03-17T08:28:00.113Z,100.00
2019-03-17T08:30:33.693Z,100.00
2019-03-17T08:33:04.272Z,100.00
2019-03-17T08:35:34.857Z,100.00
2019-03-17T08:38:05.454Z,100.00
2019-03-17T08:40:36.044Z,100.00
2019-03-17T08:43:06.643Z,100.00
2019-03-17T08:45:37.208Z,100.00
2019-03-17T08:48:07.831Z,100.00
2019-03-17T08:50:38.435Z,100.00
2019-03-17T08:53:09.083Z,100.00
2019-03-17T08:55:39.740Z,100.00
2019-03-17T08:58:10.380Z,100.00
2019-03-17T09:00:40.915Z,100.00
2019-03-17T09:03:12.594Z,100.00
2019-03-17T09:05:43.177Z,100.00
2019-03-17T09:08:13.747Z,100.00
2019-03-17T09:10:44.323Z,100.00
2019-03-17T09:13:14.978Z,100.00
2019-03-17T09:15:45.564Z,100.00
2019-03-17T09:18:16.302Z,100.00
2019-03-17T09:20:46.883Z,100.00
2019-03-17T09:23:19.968Z,100.00
2019-03-17T09:25:50.519Z,100.00
2019-03-17T09:28:21.145Z,100.00
2019-03-17T09:30:53.352Z,100.00
2019-03-17T09:33:24.009Z,100.00
2019-03-17T09:35:54.563Z,100.00
2019-03-17T09:38:25.189Z,100.00
2019-03-17T09:40:57.922Z,100.00
2019-03-17T09:43:28.520Z,100.00
2019-03-17T09:45:59.077Z,100.00
2019-03-17T09:48:29.646Z,100.00
2019-03-17T09:51:00.204Z,100.00
2019-03-17T09:53:30.826Z,100.00
2019-03-17T09:56:01.441Z,100.00
2019-03-17T09:58:32.146Z,100.00
2019-03-17T10:01:02.728Z,100.00
2019-03-17T10:03:35.314Z,100.00
2019-03-17T10:06:05.842Z,100.00
2019-03-17T10:08:36.495Z,100.00
2019-03-17T10:11:07.264Z,100.00
2019-03-17T10:13:37.869Z,100.00
2019-03-17T10:16:08.461Z,100.00
2019-03-17T10:18:39.100Z,100.00
2019-03-17T10:21:09.703Z,100.00
2019-03-17T10:23:40.284Z,100.00
2019-03-17T10:26:10.836Z,95.29
2019-03-17T10:28:41.473Z,93.73
2019-03-17T10:31:12.076Z,94.13
2019-03-17T10:33:45.550Z,96.30
2019-03-17T10:36:14.962Z,95.18
2019-03-17T10:38:45.592Z,95.64
2019-03-17T10:41:16.221Z,95.00
2019-03-17T10:43:49.863Z,94.96
2019-03-17T10:46:20.395Z,93.46
2019-03-17T10:48:51.018Z,93.25
2019-03-17T10:51:21.571Z,92.67
2019-03-17T10:53:55.254Z,93.84
2019-03-17T10:56:25.820Z,94.19
2019-03-17T10:58:58.439Z,93.92
2019-03-17T11:01:28.764Z,94.85
2019-03-17T11:03:59.377Z,95.57
2019-03-17T11:06:29.928Z,95.16
2019-03-17T11:09:00.575Z,94.44
2019-03-17T11:11:31.196Z,94.64
2019-03-17T11:14:01.839Z,95.02
2019-03-17T11:16:32.405Z,94.67
2019-03-17T11:19:03.078Z,93.74
2019-03-17T11:21:33.644Z,93.67
2019-03-17T11:24:04.244Z,94.44
2019-03-17T11:26:34.761Z,94.03
2019-03-17T11:29:05.410Z,94.34
2019-03-17T11:31:35.982Z,94.67
2019-03-17T11:34:06.568Z,95.18
2019-03-17T11:36:37.164Z,93.45
2019-03-17T11:39:09.214Z,94.08
2019-03-17T11:41:39.860Z,93.77
2019-03-17T11:44:10.475Z,93.33
2019-03-17T11:46:41.067Z,94.13
2019-03-17T11:49:11.717Z,94.60
2019-03-17T11:51:42.292Z,93.72
2019-03-17T11:54:12.942Z,91.67
2019-03-17T11:56:43.524Z,92.75
2019-03-17T11:59:14.108Z,91.61
2019-03-17T12:01:45.864Z,92.80
2019-03-17T12:04:18.589Z,93.71
2019-03-17T12:06:49.221Z,92.57
2019-03-17T12:09:28.442Z,93.44
2019-03-17T12:11:52.130Z,93.95
2019-03-17T12:14:22.776Z,92.53
2019-03-17T12:16:53.346Z,91.94
2019-03-17T12:19:23.980Z,92.39
2019-03-17T12:21:54.508Z,93.07
2019-03-17T12:24:25.121Z,92.18
2019-03-17T12:26:56.653Z,92.42
2019-03-17T12:29:27.311Z,92.18
2019-03-17T12:31:57.843Z,92.53
2019-03-17T12:34:28.767Z,92.68
2019-03-17T12:37:00.487Z,93.37
2019-03-17T12:39:31.124Z,92.04
2019-03-17T12:42:01.750Z,92.86
2019-03-17T12:44:32.383Z,93.54
2019-03-17T12:47:04.539Z,93.19
2019-03-17T12:49:35.217Z,92.70
2019-03-17T12:52:05.801Z,92.64
2019-03-17T12:54:36.430Z,92.48
2019-03-17T12:57:08.977Z,92.87
2019-03-17T12:59:39.315Z,92.66
2019-03-17T13:02:09.907Z,91.46
2019-03-17T13:04:40.539Z,91.88
2019-03-17T13:07:11.086Z,91.90
2019-03-17T13:09:41.664Z,90.63
2019-03-17T13:12:12.228Z,91.04
2019-03-17T13:14:42.857Z,90.86
2019-03-17T13:17:13.465Z,89.81
2019-03-17T13:19:44.041Z,89.11
2019-03-17T13:22:16.106Z,89.81
2019-03-17T13:24:48.367Z,89.57
2019-03-17T13:27:18.955Z,89.64
2019-03-17T13:29:49.607Z,87.70
2019-03-17T13:32:20.150Z,87.86
2019-03-17T13:34:50.769Z,88.45
2019-03-17T13:37:21.690Z,88.42
2019-03-17T13:39:52.272Z,87.00
2019-03-17T13:42:24.151Z,85.28
2019-03-17T13:44:54.763Z,87.01
2019-03-17T13:47:25.338Z,86.16
2019-03-17T13:49:55.935Z,84.38
2019-03-17T13:52:26.523Z,85.70
2019-03-17T13:54:57.138Z,84.23
2019-03-17T13:57:27.726Z,84.23
2019-03-17T13:59:58.344Z,84.81
2019-03-17T14:02:28.951Z,81.11
2019-03-17T14:04:59.573Z,81.68
2019-03-17T14:07:31.583Z,80.69
2019-03-17T14:10:13.093Z,80.54
2019-03-17T14:12:34.529Z,80.81
2019-03-17T14:15:06.250Z,80.27
2019-03-17T14:17:36.822Z,79.32
2019-03-17T14:20:08.913Z,78.86
2019-03-17T14:22:39.566Z,78.97
2019-03-17T14:25:14.604Z,77.93
2019-03-17T14:27:45.144Z,77.57
2019-03-17T14:30:16.930Z,76.44
2019-03-17T14:32:47.539Z,75.97
2019-03-17T14:35:21.165Z,76.98
2019-03-17T14:37:50.518Z,75.00
2019-03-17T14:40:21.133Z,75.74
2019-03-17T14:42:51.757Z,75.48
2019-03-17T14:45:22.354Z,74.76
2019-03-17T14:47:52.894Z,73.37
2019-03-17T14:50:23.545Z,71.93
2019-03-17T14:52:54.302Z,72.15
2019-03-17T14:55:26.045Z,70.93
2019-03-17T14:57:56.611Z,72.05
2019-03-17T15:00:27.212Z,77.32
2019-03-17T15:02:57.838Z,79.16
2019-03-17T15:05:28.485Z,82.55
2019-03-17T15:07:59.198Z,83.63
2019-03-17T15:10:32.031Z,82.48
2019-03-17T15:13:02.592Z,84.28
2019-03-17T15:15:33.276Z,84.08
2019-03-17T15:18:03.904Z,84.07
2019-03-17T15:20:34.521Z,81.24
2019-03-17T15:23:05.179Z,81.34
2019-03-17T15:25:35.759Z,84.03
2019-03-17T15:28:06.434Z,83.97
2019-03-17T15:30:37.159Z,82.51
2019-03-17T15:33:07.730Z,83.92
2019-03-17T15:35:38.309Z,83.11
2019-03-17T15:38:08.968Z,83.30
2019-03-17T15:40:39.539Z,82.45
2019-03-17T15:43:10.171Z,83.32
2019-03-17T15:45:40.785Z,81.77
2019-03-17T15:48:16.319Z,79.71
2019-03-17T15:50:47.204Z,79.38
2019-03-17T15:53:20.189Z,80.75
2019-03-17T15:55:50.881Z,79.32
2019-03-17T15:58:21.405Z,78.55
2019-03-17T16:00:52.036Z,79.35
2019-03-17T16:03:22.624Z,80.58
2019-03-17T16:05:53.211Z,78.86
2019-03-17T16:08:23.779Z,79.62
2019-03-17T16:10:56.198Z,79.56
2019-03-17T16:13:26.820Z,79.86
2019-03-17T16:15:57.498Z,80.76
2019-03-17T16:18:28.172Z,79.63
2019-03-17T16:20:58.870Z,80.71
2019-03-17T16:23:30.991Z,81.42
2019-03-17T16:26:01.637Z,81.44
2019-03-17T16:28:32.243Z,82.85
2019-03-17T16:31:02.884Z,83.55
2019-03-17T16:33:33.485Z,84.04
2019-03-17T16:36:04.100Z,83.18
2019-03-17T16:38:34.712Z,83.25
2019-03-17T16:41:06.914Z,82.71
2019-03-17T16:43:37.486Z,83.00
2019-03-17T16:46:09.386Z,83.73
2019-03-17T16:48:39.910Z,81.93
2019-03-17T16:51:10.539Z,82.93
2019-03-17T16:53:42.703Z,81.71
2019-03-17T16:56:13.339Z,81.18
2019-03-17T16:58:43.912Z,81.46
2019-03-17T17:01:14.554Z,81.73
2019-03-17T17:03:45.357Z,81.79
2019-03-17T17:06:15.994Z,81.66
2019-03-17T17:08:46.505Z,82.76
2019-03-17T17:11:17.161Z,82.73
2019-03-17T17:13:47.732Z,82.71
2019-03-17T17:16:18.409Z,82.75
2019-03-17T17:18:48.938Z,83.97
2019-03-17T17:21:19.524Z,85.21
2019-03-17T17:23:50.197Z,84.74
2019-03-17T17:26:20.870Z,84.30
2019-03-17T17:28:51.463Z,85.41
2019-03-17T17:31:23.078Z,85.93
2019-03-17T17:33:53.648Z,86.39
2019-03-17T17:36:24.288Z,85.61
2019-03-17T17:38:54.890Z,85.93
2019-03-17T17:41:25.522Z,86.12
2019-03-17T17:43:56.074Z,85.82
2019-03-17T17:46:26.697Z,85.75
2019-03-17T17:48:57.216Z,85.90
2019-03-17T17:51:27.873Z,85.72
2019-03-17T17:53:58.494Z,85.98
2019-03-17T17:56:29.230Z,86.40
2019-03-17T17:59:00.067Z,86.98
2019-03-17T18:01:30.941Z,87.05
2019-03-17T18:04:01.628Z,87.19
2019-03-17T18:06:32.270Z,86.40
2019-03-17T18:09:03.210Z,86.91
2019-03-17T18:11:39.078Z,85.92
2019-03-17T18:14:09.638Z,86.18
2019-03-17T18:16:41.738Z,86.06
2019-03-17T18:19:12.338Z,85.84
2019-03-17T18:21:43.020Z,85.55
2019-03-17T18:24:15.564Z,86.04
2019-03-17T18:26:45.968Z,86.04
2019-03-17T18:29:16.515Z,86.26
2019-03-17T18:31:47.214Z,86.14
2019-03-17T18:34:17.816Z,86.24
2019-03-17T18:36:48.423Z,86.96
2019-03-17T18:39:18.977Z,86.42
2019-03-17T18:41:49.558Z,86.47
2019-03-17T18:44:20.157Z,86.68
2019-03-17T18:46:50.769Z,86.49
2019-03-17T18:49:21.316Z,86.79
2019-03-17T18:51:51.978Z,87.02
2019-03-17T18:54:22.518Z,86.66
2019-03-17T18:56:53.185Z,86.53
2019-03-17T18:59:26.063Z,87.00
2019-03-17T19:01:56.662Z,87.29
2019-03-17T19:04:27.296Z,87.77
2019-03-17T19:06:58.166Z,87.85
2019-03-17T19:09:30.263Z,87.37
2019-03-17T19:12:00.922Z,86.93
2019-03-17T19:14:32.705Z,86.78
2019-03-17T19:17:03.361Z,86.89
2019-03-17T19:19:36.235Z,86.89
2019-03-17T19:22:06.862Z,87.04
2019-03-17T19:24:37.480Z,87.29
2019-03-17T19:27:08.110Z,87.44
2019-03-17T19:29:38.737Z,87.50
2019-03-17T19:32:09.323Z,87.54
2019-03-17T19:34:39.934Z,87.92
2019-03-17T19:37:10.610Z,88.14
2019-03-17T19:39:41.197Z,88.45
2019-03-17T19:42:11.846Z,88.63
2019-03-17T19:44:42.503Z,87.91
2019-03-17T19:47:13.082Z,87.78
2019-03-17T19:49:43.615Z,88.22
2019-03-17T19:52:14.227Z,87.42
2019-03-17T19:54:44.845Z,87.00
2019-03-17T19:57:15.470Z,87.34
2019-03-17T19:59:46.049Z,87.48
2019-03-17T20:02:16.614Z,87.61
2019-03-17T20:04:49.711Z,87.61
2019-03-17T20:07:20.270Z,87.54
2019-03-17T20:09:50.903Z,87.96
2019-03-17T20:12:23.589Z,87.54
2019-03-17T20:14:54.163Z,87.56
2019-03-17T20:17:24.839Z,87.45
2019-03-17T20:19:55.490Z,87.66
2019-03-17T20:22:26.126Z,87.92
2019-03-17T20:24:56.795Z,87.92
2019-03-17T20:27:27.416Z,87.75
2019-03-17T20:29:58.038Z,88.27
2019-03-17T20:32:28.637Z,87.91
2019-03-17T20:34:59.227Z,87.48
2019-03-17T20:37:29.820Z,87.90
2019-03-17T20:40:00.432Z,88.41
2019-03-17T20:42:31.126Z,88.86
2019-03-17T20:45:01.714Z,88.57
2019-03-17T20:47:32.357Z,88.33
2019-03-17T20:50:06.699Z,88.96
2019-03-17T20:52:37.341Z,89.28
2019-03-17T20:55:08.690Z,89.13
2019-03-17T20:57:39.327Z,89.44
2019-03-17T21:00:12.764Z,89.46
2019-03-17T21:02:43.380Z,89.14
2019-03-17T21:05:14.166Z,89.45
2019-03-17T21:07:44.971Z,89.57
2019-03-17T21:10:15.563Z,90.08
2019-03-17T21:12:46.185Z,90.25
2019-03-17T21:15:16.782Z,89.97
2019-03-17T21:17:47.444Z,90.04
2019-03-17T21:20:17.996Z,90.10
2019-03-17T21:22:48.643Z,90.46
2019-03-17T21:25:19.288Z,90.61
2019-03-17T21:27:49.858Z,89.97
2019-03-17T21:30:21.513Z,90.14
2019-03-17T21:32:52.229Z,90.53
2019-03-17T21:35:22.758Z,91.10
2019-03-17T21:37:53.414Z,90.91
2019-03-17T21:40:23.999Z,90.80
2019-03-17T21:42:54.612Z,90.69
2019-03-17T21:45:27.544Z,90.50
2019-03-17T21:47:57.529Z,91.29
2019-03-17T21:50:28.079Z,91.51
2019-03-17T21:52:58.698Z,92.04
2019-03-17T21:55:29.273Z,92.09
2019-03-17T21:58:07.378Z,92.25
2019-03-17T22:00:32.173Z,92.88
2019-03-17T22:03:03.510Z,92.69
2019-03-17T22:05:36.258Z,92.26
2019-03-17T22:08:08.029Z,92.76
2019-03-17T22:10:41.717Z,93.23
2019-03-17T22:13:12.317Z,93.62
2019-03-17T22:15:42.871Z,93.89
2019-03-17T22:18:13.582Z,94.20
2019-03-17T22:20:46.720Z,94.08
2019-03-17T22:23:17.855Z,94.17
2019-03-17T22:25:55.535Z,94.15
2019-03-17T22:28:28.032Z,94.19
2019-03-17T22:31:11.550Z,94.21
2019-03-17T22:33:45.340Z,94.30
2019-03-17T22:36:22.062Z,94.74
2019-03-17T22:38:55.172Z,94.71
2019-03-17T22:41:37.716Z,94.99
2019-03-17T22:44:09.290Z,95.52
2019-03-17T22:46:46.047Z,95.73
2019-03-17T22:49:17.430Z,95.74
2019-03-17T22:51:54.785Z,95.89
2019-03-17T22:54:28.948Z,95.55
2019-03-17T22:57:02.005Z,95.16
2019-03-17T22:59:36.260Z,95.10
2019-03-17T23:02:07.340Z,95.53
2019-03-17T23:04:41.016Z,95.49
2019-03-17T23:07:12.235Z,95.53
2019-03-17T23:09:42.771Z,95.65
2019-03-17T23:12:13.395Z,96.06
2019-03-17T23:14:44.147Z,96.06
2019-03-17T23:17:14.727Z,96.00
2019-03-17T23:19:45.338Z,96.00
2019-03-17T23:22:18.828Z,95.84
2019-03-17T23:24:53.074Z,95.26
2019-03-17T23:27:23.748Z,95.44
2019-03-17T23:30:00.599Z,95.68
2019-03-17T23:32:31.498Z,95.57
2019-03-17T23:35:02.033Z,95.66
2019-03-17T23:37:38.843Z,95.72
2019-03-17T23:40:20.035Z,95.56
2019-03-17T23:42:50.821Z,95.00
2019-03-17T23:45:22.061Z,95.07
2019-03-17T23:47:52.669Z,95.43
2019-03-17T23:50:24.399Z,95.45
2019-03-17T23:52:56.228Z,95.63
2019-03-17T23:55:28.939Z,95.43
2019-03-17T23:57:59.577Z,95.18
